Time;durP1;ratioP1;P1;durP2;ratioP2;P2;SDS_P1;SDS_P2;PMS_P1;PMS_P2;Temp;Humidity;BMP_temperature;BMP_pressure;BME280_temperature;BME280_humidity;BME280_pressure;Samples;Min_cycle;Max_cycle;Signal;HPM_P1;HPM_P2
2022/05/20 00:02:23;;;;;;;4.68;1.50;;;;;;;15.72;66.56;99093.91;4433402;32;20048;-78
2022/05/20 00:04:50;;;;;;;2.12;1.42;;;;;;;15.93;65.94;99125.28;4452973;32;20443;-76
2022/05/20 00:07:17;;;;;;;7.35;1.95;;;;;;;15.88;66.43;99125.31;4443867;32;20063;-77
2022/05/20 00:09:43;;;;;;;2.83;1.65;;;;;;;15.82;66.18;99115.59;4448668;32;20042;-77
2022/05/20 00:12:10;;;;;;;8.13;1.62;;;;;;;15.84;66.85;99126.97;4461150;32;20060;-76
2022/05/20 00:14:37;;;;;;;5.78;1.60;;;;;;;15.57;68.14;99092.94;4461786;32;20037;-77
2022/05/20 00:17:05;;;;;;;5.47;1.80;;;;;;;15.58;68.86;99097.25;4461139;32;20041;-76
2022/05/20 00:19:33;;;;;;;6.22;1.58;;;;;;;15.70;68.54;99123.22;4462216;32;20321;-76
2022/05/20 00:22:00;;;;;;;2.00;1.60;;;;;;;15.65;69.25;99123.25;4458664;32;20045;-77
2022/05/20 00:24:27;;;;;;;3.55;1.87;;;;;;;15.50;68.94;99089.69;4448739;32;20053;-76
2022/05/20 00:26:54;;;;;;;1.92;1.50;;;;;;;15.57;69.50;99108.38;4446889;32;20065;-77
2022/05/20 00:29:20;;;;;;;8.43;1.37;;;;;;;15.56;69.55;99104.88;4450065;32;20067;-76
2022/05/20 00:31:47;;;;;;;1.17;1.00;;;;;;;15.64;69.60;99113.53;4463708;32;20038;-75
2022/05/20 00:34:13;;;;;;;9.38;2.10;;;;;;;15.25;70.42;99063.53;4462426;32;20373;-81
2022/05/20 00:36:40;;;;;;;6.03;1.55;;;;;;;15.34;70.17;99071.91;4463113;32;20406;-76
2022/05/20 00:39:06;;;;;;;2.83;1.55;;;;;;;15.34;70.75;99066.47;4463656;32;20348;-76
2022/05/20 00:41:33;;;;;;;11.35;1.92;;;;;;;15.48;71.86;99096.50;4463105;32;20080;-76
2022/05/20 00:43:59;;;;;;;8.80;1.40;;;;;;;15.43;71.17;99090.03;4460316;32;20067;-77
2022/05/20 00:46:27;;;;;;;5.75;1.87;;;;;;;15.19;72.60;99057.34;4461847;32;20063;-76
2022/05/20 00:49:09;;;;;;;2.70;1.70;;;;;;;15.41;72.75;99094.91;4460306;32;20034;-77
2022/05/20 00:51:48;;;;;;;12.18;1.75;;;;;;;15.40;73.20;99089.78;4456795;32;20082;-77
2022/05/20 00:54:17;;;;;;;2.50;1.55;;;;;;;15.19;72.22;99054.63;4463705;32;20063;-76
2022/05/20 00:56:53;;;;;;;5.18;1.80;;;;;;;15.17;72.77;99050.56;4458015;32;20033;-76
2022/05/20 00:59:25;;;;;;;1.98;1.52;;;;;;;15.33;73.32;99081.13;4450175;32;20045;-76
2022/05/20 01:01:54;;;;;;;6.50;1.30;;;;;;;15.08;73.13;99042.19;4433953;32;20038;-77
2022/05/20 01:04:22;;;;;;;4.22;2.87;;;;;;;15.31;73.15;99084.09;4459444;32;20086;-76
2022/05/20 01:06:49;;;;;;;4.62;1.90;;;;;;;15.07;73.12;99056.84;4462899;32;20049;-76
2022/05/20 01:09:15;;;;;;;4.18;1.20;;;;;;;15.02;73.67;99067.72;4460795;32;20037;-79
2022/05/20 01:11:42;;;;;;;4.85;1.87;;;;;;;15.06;72.70;99071.47;4449017;32;20856;-76
2022/05/20 01:14:10;;;;;;;2.67;1.55;;;;;;;15.26;72.82;99098.50;4463634;32;20374;-76
2022/05/20 01:16:37;;;;;;;1.85;1.58;;;;;;;15.26;73.35;99093.09;4463064;32;20061;-76
2022/05/20 01:19:10;;;;;;;6.65;1.85;;;;;;;15.18;74.02;99085.53;4461589;32;20059;-81
2022/05/20 01:21:36;;;;;;;10.15;1.80;;;;;;;14.79;75.32;99034.75;4463276;32;20077;-76
2022/05/20 01:24:03;;;;;;;1.60;1.17;;;;;;;15.03;76.77;99082.88;4463096;32;20077;-76
2022/05/20 01:26:30;;;;;;;5.62;1.55;;;;;;;14.80;77.31;99052.59;4461164;32;20038;-75
2022/05/20 01:28:56;;;;;;;3.37;1.60;;;;;;;14.95;78.08;99086.16;4453085;32;20029;-76
2022/05/20 01:31:22;;;;;;;4.12;1.92;;;;;;;14.68;78.28;99044.81;4445361;32;20089;-76
2022/05/20 01:33:51;;;;;;;5.60;1.30;;;;;;;14.86;79.85;99084.03;4462321;32;20057;-76
2022/05/20 01:36:21;;;;;;;2.92;1.95;;;;;;;14.86;79.67;99078.63;4462972;32;20046;-75
2022/05/20 01:38:48;;;;;;;2.95;1.50;;;;;;;14.83;78.83;99073.75;4463148;32;20051;-76
2022/05/20 01:41:21;;;;;;;7.53;1.40;;;;;;;14.76;79.82;99073.25;4458909;32;20037;-82
2022/05/20 01:43:47;;;;;;;3.58;1.48;;;;;;;14.75;80.10;99070.81;4462861;32;20050;-75
2022/05/20 01:46:34;;;;;;;5.28;1.58;;;;;;;14.73;80.66;99081.91;4462703;32;20034;-78
2022/05/20 01:49:10;;;;;;;4.95;1.60;;;;;;;14.79;80.11;99078.13;4447000;32;20385;-77
2022/05/20 01:51:49;;;;;;;5.03;1.50;;;;;;;14.80;78.81;99089.75;4448897;32;20025;-75
2022/05/20 01:54:30;;;;;;;3.12;1.65;;;;;;;14.75;79.41;99085.16;4454368;32;20455;-75
2022/05/20 01:57:06;;;;;;;14.05;2.22;;;;;;;14.77;79.35;99074.84;4453097;32;20042;-76
2022/05/20 01:59:40;;;;;;;5.25;1.70;;;;;;;14.60;79.73;99047.25;4432334;32;20076;-76
2022/05/20 02:02:26;;;;;;;8.57;1.67;;;;;;;14.73;79.28;99068.38;4432011;32;20089;-77
2022/05/20 02:05:01;;;;;;;3.65;1.60;;;;;;;14.57;79.29;99042.34;4459954;32;20068;-77
2022/05/20 02:07:33;;;;;;;4.43;1.55;;;;;;;14.75;79.35;99065.38;4462577;32;20041;-76
2022/05/20 02:10:17;;;;;;;8.70;2.45;;;;;;;14.66;80.46;99062.41;4461326;32;20036;-81
2022/05/20 02:12:48;;;;;;;9.52;1.70;;;;;;;14.69;80.50;99068.12;4462631;32;20037;-75
2022/05/20 02:15:25;;;;;;;11.60;1.95;;;;;;;14.46;81.23;99030.75;4448889;32;20315;-75
2022/05/20 02:17:55;;;;;;;9.63;2.00;;;;;;;14.67;80.84;99058.63;4458083;32;20052;-81
2022/05/20 02:20:22;;;;;;;3.35;1.42;;;;;;;14.65;80.17;99055.41;4459366;32;20049;-76
2022/05/20 02:22:53;;;;;;;2.87;1.52;;;;;;;14.58;80.52;99054.81;4451820;32;20088;-76
2022/05/20 02:25:23;;;;;;;2.97;1.58;;;;;;;14.63;81.10;99054.84;4460916;32;20038;-76
2022/05/20 02:27:57;;;;;;;5.05;2.10;;;;;;;14.59;80.89;99056.47;4463794;32;20088;-77
2022/05/20 02:30:28;;;;;;;2.90;1.83;;;;;;;14.59;81.02;99057.25;4437403;32;20115;-76
2022/05/20 02:33:05;;;;;;;3.57;2.40;;;;;;;14.38;80.45;99021.28;4435881;32;20063;-76
2022/05/20 02:35:32;;;;;;;10.38;1.55;;;;;;;14.59;80.91;99045.63;4433926;32;20125;-80
2022/05/20 02:38:05;;;;;;;5.05;1.58;;;;;;;14.53;81.08;99059.19;4435781;32;20045;-76
2022/05/20 02:40:31;;;;;;;2.28;1.65;;;;;;;14.34;80.92;99028.34;4436295;32;20419;-76
2022/05/20 02:42:58;;;;;;;7.15;1.80;;;;;;;14.43;81.99;99059.19;4450780;32;20035;-76
2022/05/20 02:45:31;;;;;;;4.45;1.62;;;;;;;14.40;80.81;99056.22;4446435;32;20385;-76
2022/05/20 02:47:57;;;;;;;3.15;1.70;;;;;;;14.51;80.00;99058.63;4465941;32;20070;-75
2022/05/20 02:50:23;;;;;;;3.45;1.30;;;;;;;14.25;80.84;99024.56;4454033;32;20085;-76
2022/05/20 02:52:51;;;;;;;11.18;1.30;;;;;;;14.38;80.27;99051.09;4449603;32;20046;-75
2022/05/20 02:55:17;;;;;;;11.25;1.85;;;;;;;14.38;81.46;99055.72;4434633;32;20022;-76
2022/05/20 02:57:44;;;;;;;6.78;1.30;;;;;;;14.34;82.22;99050.84;4456660;32;20037;-76
2022/05/20 03:05:57;;;;;;;2.35;1.40;;;;;;;14.25;83.00;99040.81;4430114;32;20049;-75
2022/05/20 03:08:23;;;;;;;1.58;1.48;;;;;;;14.29;83.31;99039.19;4442483;32;20084;-76
2022/05/20 03:10:50;;;;;;;4.90;1.60;;;;;;;14.14;83.80;99012.94;4463571;32;20427;-83
2022/05/20 03:13:17;;;;;;;6.30;3.30;;;;;;;14.05;83.21;98988.31;4463808;32;20125;-75
2022/05/20 03:15:44;;;;;;;12.77;1.50;;;;;;;14.22;84.23;99030.53;4454343;32;20038;-75
2022/05/20 03:18:12;;;;;;;3.62;2.00;;;;;;;14.21;84.55;99034.31;4448931;32;20034;-75
2022/05/20 03:20:41;;;;;;;6.68;1.60;;;;;;;14.21;84.42;99023.50;4434231;32;20042;-75
2022/05/20 03:23:09;;;;;;;2.75;1.60;;;;;;;13.99;84.72;99011.91;4460705;32;20042;-82
2022/05/20 03:25:37;;;;;;;13.93;1.80;;;;;;;13.97;85.33;98999.69;4450599;32;20079;-78
2022/05/20 03:28:04;;;;;;;1.52;1.37;;;;;;;14.24;83.75;99039.19;4464461;32;20033;-76
2022/05/20 03:30:30;;;;;;;2.00;1.33;;;;;;;14.00;83.15;98993.75;4464331;32;20390;-76
2022/05/20 03:32:57;;;;;;;2.87;1.60;;;;;;;14.30;82.88;99030.78;4459159;32;20037;-77
2022/05/20 03:35:24;;;;;;;6.68;1.75;;;;;;;14.11;83.36;98999.97;4453161;32;20068;-77
2022/05/20 03:37:50;;;;;;;3.22;1.98;;;;;;;14.32;82.10;99028.59;4464185;32;20041;-74
2022/05/20 03:40:16;;;;;;;2.45;1.70;;;;;;;14.33;82.10;99027.53;4450830;32;20319;-75
2022/05/20 03:42:43;;;;;;;2.15;1.75;;;;;;;14.32;82.33;99022.38;4464326;32;20414;-75
2022/05/20 03:45:10;;;;;;;1.92;1.50;;;;;;;14.15;82.64;98993.72;4450312;32;20080;-75
2022/05/20 03:47:36;;;;;;;5.75;1.73;;;;;;;14.28;84.59;99015.88;4457178;32;20116;-76
2022/05/20 03:50:04;;;;;;;5.65;1.40;;;;;;;14.32;83.60;99019.69;4454953;32;20782;-76
2022/05/20 03:52:30;;;;;;;9.63;1.55;;;;;;;14.41;84.14;99026.16;4447426;32;20071;-76
2022/05/20 03:54:57;;;;;;;3.20;1.48;;;;;;;14.38;84.12;99023.19;4459905;32;20049;-75
2022/05/20 03:57:24;;;;;;;4.87;1.30;;;;;;;14.22;84.78;98995.34;4456288;32;20092;-79
2022/05/20 03:59:50;;;;;;;2.70;1.58;;;;;;;14.32;84.75;99000.72;4442909;32;20037;-75
2022/05/20 04:02:17;;;;;;;1.45;1.12;;;;;;;14.47;84.23;99011.53;4462797;32;20825;-75
2022/05/20 04:04:47;;;;;;;2.05;1.48;;;;;;;14.47;84.87;99013.41;4452717;32;20089;-74
2022/05/20 04:07:17;;;;;;;7.25;1.65;;;;;;;14.52;85.46;99025.03;4455066;32;20077;-77
2022/05/20 04:09:45;;;;;;;8.02;1.60;;;;;;;14.59;84.89;99034.78;4432235;32;20062;-76
2022/05/20 04:12:33;;;;;;;3.03;1.75;;;;;;;14.60;85.02;99025.59;4445788;32;20042;-77
2022/05/20 04:15:02;;;;;;;2.60;1.80;;;;;;;14.66;85.69;99025.31;4444352;32;20071;-78
2022/05/20 04:17:28;;;;;;;4.50;1.20;;;;;;;14.59;87.24;99015.81;4445204;32;20034;-76
2022/05/20 04:19:55;;;;;;;4.20;2.03;;;;;;;14.45;86.98;98996.63;4448235;32;20022;-76
2022/05/20 04:22:31;;;;;;;3.78;1.77;;;;;;;14.60;87.60;99014.75;4470848;32;20068;-76
2022/05/20 04:24:58;;;;;;;2.25;1.40;;;;;;;14.56;87.98;99021.78;4448822;32;20400;-78
2022/05/20 04:27:27;;;;;;;7.32;2.70;;;;;;;14.58;89.24;99033.94;4439496;32;20095;-75
2022/05/20 04:29:55;;;;;;;2.53;1.77;;;;;;;14.63;89.90;99044.00;4466996;32;20127;-75
2022/05/20 04:32:21;;;;;;;13.15;1.75;;;;;;;14.75;90.22;99044.50;4452900;32;20021;-75
2022/05/20 04:34:49;;;;;;;3.15;1.92;;;;;;;14.78;90.85;99043.16;4474744;32;20040;-81
2022/05/20 04:37:15;;;;;;;8.75;1.55;;;;;;;14.83;89.58;99046.63;4468666;32;20037;-75
2022/05/20 04:39:41;;;;;;;3.42;1.75;;;;;;;14.88;90.83;99043.09;4448108;32;20067;-76
2022/05/20 04:47:45;;;;;;;10.15;2.20;;;;;;;14.91;90.56;98995.66;4450756;32;20089;-76
2022/05/20 04:50:12;;;;;;;6.00;1.80;;;;;;;15.10;90.56;99012.91;4454341;32;20059;-76
2022/05/20 04:52:39;;;;;;;3.70;1.70;;;;;;;15.29;91.32;99036.66;4462511;32;20057;-80
2022/05/20 04:55:07;;;;;;;9.02;2.25;;;;;;;15.45;90.15;99043.63;4461762;32;20059;-76
2022/05/20 04:57:46;;;;;;;3.25;1.65;;;;;;;15.51;92.18;99045.19;4447724;32;20410;-77
2022/05/20 05:00:25;;;;;;;7.22;1.52;;;;;;;15.58;92.80;99034.81;4455510;32;20045;-75
2022/05/20 05:02:53;;;;;;;4.05;1.50;;;;;;;15.71;92.93;99046.13;4449680;32;20053;-74
2022/05/20 05:05:23;;;;;;;7.80;2.20;;;;;;;15.62;93.66;99025.03;4446554;32;20051;-73
2022/05/20 05:07:51;;;;;;;13.43;2.10;;;;;;;15.86;94.02;99046.06;4446627;32;20440;-74
2022/05/20 05:10:24;;;;;;;6.87;2.22;;;;;;;15.96;94.07;99037.03;4431211;32;20062;-78
2022/05/20 05:12:51;;;;;;;16.12;2.20;;;;;;;16.03;93.60;99028.53;4457387;32;20053;-73
2022/05/20 05:15:20;;;;;;;7.70;1.83;;;;;;;16.06;95.48;99049.69;4446373;32;20348;-75
2022/05/20 05:20:32;;;;;;;7.87;1.80;;;;;;;16.24;95.83;99046.28;4448162;32;20037;-73
2022/05/20 05:22:58;;;;;;;7.50;2.00;;;;;;;16.28;96.37;99052.72;4458553;32;20386;-72
2022/05/20 05:25:27;;;;;;;6.35;2.17;;;;;;;16.37;96.26;99038.53;4457981;32;20095;-73
2022/05/20 05:27:54;;;;;;;8.32;1.85;;;;;;;16.40;96.91;99043.38;4444398;32;20089;-74
2022/05/20 05:30:22;;;;;;;11.27;2.05;;;;;;;16.21;98.30;99008.81;4450273;32;20069;-73
2022/05/20 05:32:49;;;;;;;5.70;1.80;;;;;;;16.47;98.76;99049.31;4460680;32;20038;-73
2022/05/20 05:35:20;;;;;;;9.15;1.70;;;;;;;16.53;98.87;99054.38;4448298;32;20054;-75
2022/05/20 05:37:47;;;;;;;17.98;1.90;;;;;;;16.66;99.51;99052.88;4451637;32;20373;-74
2022/05/20 05:40:17;;;;;;;16.12;1.83;;;;;;;16.54;100.00;99049.75;4461525;32;20807;-75
2022/05/20 05:42:44;;;;;;;6.37;2.55;;;;;;;16.59;100.00;99057.84;4453332;32;20118;-74
2022/05/20 05:45:13;;;;;;;16.20;2.62;;;;;;;16.61;100.00;99047.50;4446203;32;20043;-73
2022/05/20 05:47:39;;;;;;;12.80;1.77;;;;;;;16.60;100.00;99037.72;4445646;32;20034;-73
2022/05/20 05:50:07;;;;;;;7.25;2.20;;;;;;;16.76;100.00;99064.75;4456514;32;20224;-76
2022/05/20 05:52:33;;;;;;;3.87;1.83;;;;;;;16.80;100.00;99063.06;4463207;32;20078;-76
2022/05/20 05:55:01;;;;;;;22.98;2.10;;;;;;;16.80;100.00;99068.50;4448233;32;20449;-79
2022/05/20 05:57:31;;;;;;;15.30;1.73;;;;;;;16.95;100.00;99062.09;4479275;32;20053;-77
2022/05/20 05:59:57;;;;;;;6.00;2.03;;;;;;;16.97;100.00;99068.84;4466121;32;20014;-75
2022/05/20 06:02:24;;;;;;;11.10;1.80;;;;;;;16.95;100.00;99070.25;4470331;32;20406;-76
2022/05/20 06:04:51;;;;;;;8.63;2.17;;;;;;;16.85;100.00;99065.72;4465071;32;20391;-77
2022/05/20 06:07:18;;;;;;;9.95;2.20;;;;;;;16.83;100.00;99067.91;4452442;32;20075;-77
2022/05/20 06:09:45;;;;;;;4.97;1.83;;;;;;;16.95;100.00;99071.06;4463054;32;20413;-79
2022/05/20 06:12:14;;;;;;;18.40;3.00;;;;;;;16.94;100.00;99069.44;4474893;32;20078;-77
2022/05/20 06:14:41;;;;;;;9.63;1.83;;;;;;;16.74;100.00;99004.41;4480482;32;20059;-76
2022/05/20 06:17:11;;;;;;;10.40;2.33;;;;;;;16.99;100.00;99034.03;4481014;32;20059;-76
2022/05/20 06:19:40;;;;;;;7.72;1.83;;;;;;;17.17;100.00;99053.41;4454274;32;20056;-80
2022/05/20 06:22:07;;;;;;;20.75;2.70;;;;;;;16.99;100.00;99036.75;4473288;32;20052;-75
2022/05/20 06:24:33;;;;;;;17.15;2.60;;;;;;;17.28;100.00;99068.47;4480694;32;20041;-76
2022/05/20 06:27:00;;;;;;;9.43;1.95;;;;;;;17.40;100.00;99060.66;4467508;32;20316;-76
2022/05/20 06:29:26;;;;;;;7.68;2.12;;;;;;;17.31;100.00;99035.25;4464571;32;20350;-77
2022/05/20 06:31:53;;;;;;;5.15;2.95;;;;;;;17.34;100.00;99031.94;4462779;32;20037;-76
2022/05/20 06:34:20;;;;;;;8.75;2.17;;;;;;;17.49;100.00;99049.13;4464487;32;20067;-76
2022/05/20 06:39:50;;;;;;;6.93;2.00;;;;;;;17.58;100.00;99034.56;4464355;32;20467;-75
2022/05/20 06:42:19;;;;;;;6.65;2.47;;;;;;;17.85;100.00;99064.91;4434344;32;20097;-75
2022/05/20 06:44:45;;;;;;;3.53;2.12;;;;;;;18.01;100.00;99069.03;4452832;32;20103;-81
2022/05/20 06:47:12;;;;;;;11.60;2.92;;;;;;;17.91;100.00;99026.44;4462843;32;20042;-75
2022/05/20 06:49:39;;;;;;;13.98;2.70;;;;;;;18.02;100.00;99062.47;4464038;32;20045;-75
2022/05/20 06:52:05;;;;;;;7.45;2.45;;;;;;;17.85;100.00;99029.50;4462676;32;20578;-76
2022/05/20 06:54:32;;;;;;;21.10;2.90;;;;;;;18.19;100.00;99053.75;4448823;32;20046;-76
2022/05/20 06:56:59;;;;;;;5.05;2.05;;;;;;;18.23;100.00;99059.41;4465130;32;20071;-78
2022/05/20 06:59:25;;;;;;;6.10;2.70;;;;;;;17.96;100.00;99001.81;4471364;32;20110;-77
2022/05/20 07:01:54;;;;;;;7.40;2.10;;;;;;;18.08;100.00;99069.47;4473760;32;20194;-76
2022/05/20 07:04:20;;;;;;;6.97;2.17;;;;;;;18.04;100.00;99062.97;4444276;32;20049;-77
2022/05/20 07:06:46;;;;;;;12.10;2.40;;;;;;;18.06;100.00;99059.97;4433005;32;20071;-76
2022/05/20 07:09:13;;;;;;;11.32;2.28;;;;;;;18.15;100.00;99069.88;4455672;32;20054;-76
2022/05/20 07:11:39;;;;;;;8.13;2.22;;;;;;;18.30;100.00;99067.97;4474049;32;20397;-76
2022/05/20 07:14:06;;;;;;;4.25;2.53;;;;;;;18.27;100.00;99071.34;4465192;32;20435;-76
2022/05/20 07:16:38;;;;;;;9.73;2.37;;;;;;;18.28;100.00;99070.22;4473347;32;20076;-77
2022/05/20 07:19:12;;;;;;;6.97;2.72;;;;;;;18.39;100.00;99077.09;4448674;32;20539;-76
2022/05/20 07:21:38;;;;;;;1.95;1.52;;;;;;;18.32;100.00;99057.63;4449111;32;20037;-75
2022/05/20 07:24:05;;;;;;;9.63;2.00;;;;;;;18.42;100.00;99062.06;4448436;32;20046;-76
2022/05/20 07:26:33;;;;;;;9.35;2.50;;;;;;;18.22;100.00;99041.44;4448498;32;20177;-77
2022/05/20 07:29:00;;;;;;;7.57;1.95;;;;;;;18.67;100.00;99069.75;4432843;32;20027;-76
2022/05/20 07:31:26;;;;;;;14.93;2.33;;;;;;;18.87;100.00;99067.78;4455819;32;20051;-76
2022/05/20 07:33:53;;;;;;;6.20;3.10;;;;;;;18.62;100.00;99044.50;4449304;32;20038;-76
2022/05/20 07:36:21;;;;;;;6.70;2.00;;;;;;;18.83;100.00;99072.19;4462413;32;20041;-76
2022/05/20 07:38:47;;;;;;;11.25;2.47;;;;;;;18.92;100.00;99064.94;4454704;32;20067;-75
2022/05/20 07:41:23;;;;;;;23.48;4.20;;;;;;;18.69;100.00;99031.28;4455081;32;20065;-81
2022/05/20 07:43:49;;;;;;;6.78;2.72;;;;;;;18.79;100.00;99071.97;4448581;32;20349;-75
2022/05/20 07:46:16;;;;;;;16.70;2.17;;;;;;;18.81;100.00;99069.78;4448633;32;20510;-77
2022/05/20 07:48:43;;;;;;;10.43;2.37;;;;;;;18.88;100.00;99063.94;4452950;32;20444;-80
2022/05/20 07:51:15;;;;;;;9.10;2.80;;;;;;;18.73;100.00;99040.47;4463902;32;20025;-77
2022/05/20 07:54:06;;;;;;;12.15;2.20;;;;;;;18.99;100.00;99053.63;4450440;32;20067;-76
2022/05/20 07:56:37;;;;;;;2.53;2.33;;;;;;;19.10;100.00;99060.50;4462221;32;20160;-78
2022/05/20 07:59:11;;;;;;;6.10;2.33;;;;;;;19.13;100.00;99065.34;4463616;32;20754;-77
2022/05/20 08:01:42;;;;;;;10.18;2.75;;;;;;;19.18;100.00;99062.50;4464087;32;20055;-76
2022/05/20 08:07:07;;;;;;;5.12;2.58;;;;;;;18.95;100.00;99034.31;4464351;32;20486;-75
2022/05/20 08:09:33;;;;;;;18.73;2.72;;;;;;;19.13;100.00;99059.88;4466494;32;20045;-76
2022/05/20 08:12:00;;;;;;;6.15;2.00;;;;;;;19.12;100.00;99041.06;4476013;32;20041;-76
2022/05/20 08:14:28;;;;;;;10.95;2.05;;;;;;;19.23;100.00;99054.19;4464798;32;20086;-76
2022/05/20 08:17:00;;;;;;;9.30;2.58;;;;;;;19.44;100.00;99061.13;4434061;32;20073;-76
2022/05/20 08:19:27;;;;;;;12.88;2.40;;;;;;;19.15;100.00;99041.28;4455100;32;20055;-75
2022/05/20 08:21:53;;;;;;;9.85;2.00;;;;;;;19.24;100.00;99049.53;4455476;32;20045;-75
2022/05/20 08:24:20;;;;;;;12.13;2.85;;;;;;;19.39;100.00;99073.75;4462302;32;20072;-75
2022/05/20 08:26:47;;;;;;;3.15;2.37;;;;;;;19.32;100.00;99067.09;4463030;32;20431;-76
2022/05/20 08:29:14;;;;;;;8.23;2.87;;;;;;;19.48;100.00;99068.41;4461306;32;20439;-76
2022/05/20 08:31:42;;;;;;;15.60;3.65;;;;;;;19.55;100.00;99066.03;4462941;32;20037;-74
2022/05/20 08:34:08;;;;;;;13.25;3.15;;;;;;;19.87;100.00;99066.94;4444133;32;20191;-73
2022/05/20 08:36:38;;;;;;;3.75;2.20;;;;;;;19.96;100.00;99059.62;4442728;32;20515;-73
2022/05/20 08:39:06;;;;;;;11.05;2.65;;;;;;;19.95;100.00;99052.53;4471731;32;20033;-73
2022/05/20 08:41:38;;;;;;;2.65;1.98;;;;;;;20.17;100.00;99075.53;4470954;32;20092;-73
2022/05/20 08:44:06;;;;;;;;;;;;;;;20.44;100.00;99090.16;4468476;32;20049;-74
2022/05/20 08:46:32;;;;;;;4.75;2.40;;;;;;;20.60;100.00;99077.66;4468153;32;20010;-73
2022/05/20 08:48:59;;;;;;;7.82;2.55;;;;;;;20.25;100.00;99061.09;4470184;32;20045;-74
2022/05/20 08:51:30;;;;;;;3.15;2.17;;;;;;;20.32;100.00;99055.16;4478675;32;20207;-74
2022/05/20 08:53:56;;;;;;;6.45;2.30;;;;;;;20.51;100.00;99057.69;4476441;32;20068;-75
2022/05/20 08:56:25;;;;;;;9.95;2.75;;;;;;;20.20;100.00;99053.03;4478353;32;20057;-74
2022/05/20 08:59:11;;;;;;;16.70;2.80;;;;;;;20.45;100.00;99075.34;4477424;32;20036;-75
2022/05/20 09:01:40;;;;;;;3.08;2.50;;;;;;;20.60;100.00;99072.19;4477291;32;20427;-75
2022/05/20 09:04:13;;;;;;;22.55;2.80;;;;;;;20.56;100.00;99081.34;4478650;32;20076;-75
2022/05/20 09:06:55;;;;;;;9.35;2.40;;;;;;;20.66;100.00;99060.03;4478345;32;20332;-75
2022/05/20 09:09:21;;;;;;;6.07;3.90;;;;;;;20.56;100.00;99038.38;4475202;32;20037;-75
2022/05/20 09:11:55;;;;;;;5.90;2.67;;;;;;;20.83;100.00;99070.22;4473078;32;20212;-75
2022/05/20 09:17:21;;;;;;;3.03;2.30;;;;;;;20.59;100.00;99004.94;4459774;32;20038;-75
2022/05/20 09:20:04;;;;;;;2.47;2.22;;;;;;;21.19;100.00;99054.72;4462709;32;20059;-76
2022/05/20 09:22:37;;;;;;;5.00;2.30;;;;;;;21.29;100.00;99053.59;4448375;32;20040;-75
2022/05/20 09:25:10;;;;;;;13.85;2.17;;;;;;;21.31;100.00;99041.16;4462621;32;20119;-75
2022/05/20 09:27:37;;;;;;;4.80;2.20;;;;;;;21.45;100.00;99032.81;4456924;32;20080;-76
2022/05/20 09:30:14;;;;;;;9.48;1.80;;;;;;;21.49;100.00;99042.03;4449164;32;20072;-77
2022/05/20 09:32:44;;;;;;;2.10;1.90;;;;;;;21.72;100.00;99048.13;4448080;32;20079;-77
2022/05/20 09:35:19;;;;;;;9.75;1.90;;;;;;;21.62;100.00;99023.81;4465524;32;20145;-76
2022/05/20 09:37:48;;;;;;;9.23;2.45;;;;;;;21.97;100.00;99045.72;4450401;32;20508;-76
2022/05/20 09:40:20;;;;;;;11.35;1.80;;;;;;;22.09;100.00;99042.28;4434373;32;20034;-76
2022/05/20 09:43:01;;;;;;;5.22;1.90;;;;;;;21.99;100.00;99029.72;4448321;32;20092;-75
2022/05/20 09:45:43;;;;;;;8.50;2.17;;;;;;;22.30;100.00;99042.41;4450329;32;20110;-75
2022/05/20 09:48:10;;;;;;;8.18;1.70;;;;;;;22.41;100.00;99040.13;4447166;32;20062;-75
2022/05/20 09:50:40;;;;;;;6.45;1.73;;;;;;;22.41;100.00;99013.50;4450101;32;20410;-76
2022/05/20 09:53:33;;;;;;;7.70;1.42;;;;;;;22.64;100.00;99062.63;4449210;32;20069;-76
2022/05/20 09:56:24;;;;;;;2.72;1.45;;;;;;;22.73;100.00;99049.66;4447367;32;20046;-76
2022/05/20 09:59:32;;;;;;;20.85;1.75;;;;;;;22.84;100.00;99050.91;4461563;32;20034;-76
2022/05/20 10:02:14;;;;;;;2.92;1.95;;;;;;;23.13;100.00;99046.56;4470823;32;20050;-75
2022/05/20 10:04:51;;;;;;;13.85;1.95;;;;;;;23.10;100.00;99014.28;4468915;32;20046;-75
2022/05/20 10:07:30;;;;;;;3.78;1.90;;;;;;;23.33;100.00;99039.50;4454259;32;20080;-76
2022/05/20 10:10:10;;;;;;;7.93;1.98;;;;;;;23.25;100.00;99047.78;4450675;32;20450;-76
2022/05/20 10:12:39;;;;;;;2.03;1.83;;;;;;;23.18;100.00;99057.38;4453805;32;20071;-77
2022/05/20 10:15:27;;;;;;;1.73;1.62;;;;;;;23.05;100.00;99006.22;4457414;32;20119;-78
2022/05/20 10:18:10;;;;;;;12.45;2.55;;;;;;;23.43;100.00;99049.28;4452899;32;20054;-76
2022/05/20 10:21:12;;;;;;;16.70;2.10;;;;;;;23.36;100.00;99010.56;4456310;32;20351;-76
2022/05/20 10:23:42;;;;;;;5.60;1.87;;;;;;;23.72;100.00;99029.12;4455319;32;20038;-77
2022/05/20 10:26:18;;;;;;;6.75;3.03;;;;;;;24.04;100.00;99040.50;4458574;32;20034;-76
2022/05/20 10:34:44;;;;;;;13.40;1.80;;;;;;;24.09;100.00;98995.47;4462933;32;20038;-76
2022/05/20 10:37:47;;;;;;;9.68;1.83;;;;;;;24.42;100.00;99074.41;4456058;32;20435;-76
2022/05/20 10:40:44;;;;;;;3.20;1.40;;;;;;;24.14;100.00;99039.28;4454143;32;20042;-76
2022/05/20 10:43:23;;;;;;;2.37;1.85;;;;;;;24.25;100.00;99062.47;4454839;32;20075;-76
2022/05/20 10:49:03;;;;;;;6.32;1.62;;;;;;;24.63;100.00;99014.59;4455382;32;20346;-76
2022/05/20 10:51:54;;;;;;;6.35;1.92;;;;;;;24.91;96.97;99013.91;4455180;32;20344;-76
2022/05/20 10:54:59;;;;;;;13.60;2.03;;;;;;;24.89;92.09;99029.97;4463826;32;20386;-75
2022/05/20 10:57:53;;;;;;;9.73;1.85;;;;;;;25.00;89.88;99041.31;4458019;32;20072;-76
2022/05/20 11:00:22;;;;;;;15.05;1.50;;;;;;;24.90;87.41;99026.06;4455818;32;20090;-76
2022/05/20 11:03:24;;;;;;;5.22;1.73;;;;;;;24.79;88.14;98991.88;4456522;32;20049;-77
2022/05/20 11:06:13;;;;;;;7.18;1.80;;;;;;;25.30;81.93;98994.22;4456920;32;20394;-77
2022/05/20 11:08:49;;;;;;;2.05;1.65;;;;;;;25.96;76.40;99031.53;4454148;32;20457;-76
2022/05/20 11:11:24;;;;;;;8.43;1.65;;;;;;;25.82;78.22;98971.25;4454122;32;20502;-76
2022/05/20 11:14:10;;;;;;;8.48;2.62;;;;;;;26.30;74.40;99023.75;4456167;32;20386;-77
2022/05/20 11:16:45;;;;;;;3.20;1.67;;;;;;;25.68;71.30;99010.25;4455191;32;20464;-77
2022/05/20 11:19:41;;;;;;;11.38;1.73;;;;;;;26.12;66.92;98994.91;4452833;32;20042;-75
2022/05/20 11:22:16;;;;;;;5.10;1.58;;;;;;;26.65;63.16;99012.03;4448979;32;20038;-76
2022/05/20 11:25:12;;;;;;;4.40;1.40;;;;;;;26.52;63.87;99004.97;4455582;32;20075;-77
2022/05/20 11:27:43;;;;;;;3.47;1.42;;;;;;;26.90;56.40;99006.28;4452614;32;20059;-76
2022/05/20 11:30:28;;;;;;;11.65;1.50;;;;;;;26.69;62.35;98996.31;4446536;32;20491;-78
2022/05/20 11:33:18;;;;;;;5.72;1.40;;;;;;;26.76;57.20;99010.31;4460793;32;20059;-76
2022/05/20 11:36:07;;;;;;;7.07;2.28;;;;;;;27.01;56.76;98990.75;4461801;32;20444;-75
2022/05/20 11:38:41;;;;;;;3.78;1.58;;;;;;;26.44;60.53;99007.56;4453219;32;20041;-76
2022/05/20 11:41:26;;;;;;;1.50;1.40;;;;;;;26.58;62.81;98984.19;4439839;32;20055;-75
2022/05/20 11:44:04;;;;;;;3.55;1.10;;;;;;;26.68;54.72;98994.75;4455114;32;20087;-75
2022/05/20 11:46:42;;;;;;;2.47;1.10;;;;;;;26.74;53.40;98949.13;4453757;32;20053;-76
2022/05/20 11:49:20;;;;;;;8.93;1.62;;;;;;;26.72;54.31;98994.81;4455282;32;20045;-76
2022/05/20 11:51:50;;;;;;;2.83;1.12;;;;;;;27.00;52.49;98981.66;4427066;32;20037;-77
2022/05/20 11:54:32;;;;;;;3.62;1.98;;;;;;;25.98;56.22;98971.31;4453759;32;20033;-75
2022/05/20 11:57:08;;;;;;;6.20;1.65;;;;;;;26.51;55.45;98961.97;4452821;32;20370;-75
2022/05/20 12:00:09;;;;;;;9.88;1.55;;;;;;;27.15;52.59;98963.41;4459915;32;20054;-75
2022/05/20 12:02:45;;;;;;;3.45;1.50;;;;;;;27.32;50.73;99003.69;4452856;32;20138;-75
2022/05/20 12:05:14;;;;;;;1.42;1.20;;;;;;;27.71;47.72;98991.81;4469229;32;20107;-76
2022/05/20 12:07:42;;;;;;;1.60;1.50;;;;;;;27.46;47.92;98967.25;4467231;32;20037;-75
2022/05/20 12:10:17;;;;;;;8.50;2.65;;;;;;;27.59;47.44;98947.72;4462995;32;20037;-75
2022/05/20 12:13:06;;;;;;;2.72;1.90;;;;;;;28.11;45.69;98982.28;4469010;32;20059;-76
2022/05/20 12:15:35;;;;;;;2.83;1.55;;;;;;;27.41;45.22;98915.00;4456085;32;20422;-75
2022/05/20 12:24:11;;;;;;;2.80;1.50;;;;;;;27.09;47.50;98967.66;4471344;32;20083;-75
2022/05/20 12:24:13;;;;;;;7.03;1.58;;;;;;;27.64;47.08;98988.91;4463452;32;20054;-82
2022/05/20 12:26:46;;;;;;;1.12;1.10;;;;;;;27.09;47.71;98973.19;4465126;32;20029;-78